Time;durP1;ratioP1;P1;durP2;ratioP2;P2;SDS_P1;SDS_P2;PMS_P1;PMS_P2;Temp;Humidity;BMP_temperature;BMP_pressure;BME280_temperature;BME280_humidity;BME280_pressure;Samples;Min_cycle;Max_cycle;Signal;HPM_P1;HPM_P2
2022/10/07 00:00:49;;;;;;;;;;;19.90;56.00;;;;;;5091780;28;20278;-64
2022/10/07 00:03:15;;;;;;;;;;;19.80;56.10;;;;;;5093258;28;20287;-64
2022/10/07 00:05:40;;;;;;;;;;;19.80;56.00;;;;;;5093222;28;20010;-64
2022/10/07 00:08:06;;;;;;;;;;;19.80;56.00;;;;;;5093295;28;19913;-64
2022/10/07 00:10:35;;;;;;;;;;;19.80;56.10;;;;;;5093350;28;19908;-64
2022/10/07 00:13:01;;;;;;;;;;;19.80;56.10;;;;;;5093008;28;19958;-64
2022/10/07 00:15:26;;;;;;;;;;;19.80;56.00;;;;;;5093196;28;20368;-64
2022/10/07 00:17:52;;;;;;;;;;;19.80;56.00;;;;;;5092384;28;19908;-64
2022/10/07 00:20:17;;;;;;;;;;;19.80;55.90;;;;;;5093112;28;19916;-64
2022/10/07 00:22:42;;;;;;;;;;;19.80;55.90;;;;;;5091636;28;19953;-64
2022/10/07 00:25:08;;;;;;;;;;;19.80;55.90;;;;;;5092932;28;19996;-64
2022/10/07 00:27:34;;;;;;;;;;;19.80;56.00;;;;;;5092860;28;19915;-64
2022/10/07 00:29:59;;;;;;;;;;;19.80;56.00;;;;;;5093119;28;19912;-65
2022/10/07 00:32:24;;;;;;;;;;;19.80;55.80;;;;;;5092789;28;19924;-64
2022/10/07 00:34:50;;;;;;;;;;;19.80;56.00;;;;;;5092726;28;19960;-64
2022/10/07 00:37:15;;;;;;;;;;;19.70;55.90;;;;;;5092857;28;19931;-65
2022/10/07 00:39:41;;;;;;;;;;;19.70;56.00;;;;;;5092754;28;20383;-64
2022/10/07 00:42:07;;;;;;;;;;;19.70;56.00;;;;;;5092605;28;19916;-64
2022/10/07 00:44:37;;;;;;;;;;;19.70;56.00;;;;;;5091547;28;19908;-65
2022/10/07 00:47:21;;;;;;;;;;;19.70;55.90;;;;;;5091048;28;19908;-64
2022/10/07 00:49:52;;;;;;;;;;;19.80;56.10;;;;;;5091463;28;19912;-64
2022/10/07 00:52:19;;;;;;;;;;;19.70;55.90;;;;;;5092637;28;19908;-64
2022/10/07 00:54:44;;;;;;;;;;;19.70;55.90;;;;;;5093041;28;20054;-64
2022/10/07 00:57:10;;;;;;;;;;;19.70;56.00;;;;;;5091298;28;19920;-64
2022/10/07 00:59:36;;;;;;;;;;;19.70;56.00;;;;;;5091573;28;19915;-64
2022/10/07 01:02:02;;;;;;;;;;;19.70;56.00;;;;;;5095152;28;19938;-64
2022/10/07 01:04:28;;;;;;;;;;;19.70;56.00;;;;;;5096676;28;19908;-64
2022/10/07 01:06:54;;;;;;;;;;;19.70;55.90;;;;;;5096679;28;19954;-64
2022/10/07 01:09:20;;;;;;;;;;;19.70;55.90;;;;;;5096721;28;20010;-64
2022/10/07 01:11:51;;;;;;;;;;;19.70;55.90;;;;;;5095519;28;20326;-63
2022/10/07 01:14:17;;;;;;;;;;;19.70;56.00;;;;;;5096471;28;19920;-64
2022/10/07 01:17:03;;;;;;;;;;;19.70;55.90;;;;;;5096184;28;19953;-64
2022/10/07 01:19:44;;;;;;;;;;;19.70;55.90;;;;;;5095156;28;19999;-64
2022/10/07 01:22:10;;;;;;;;;;;19.70;55.90;;;;;;5096114;28;19989;-64
2022/10/07 01:24:35;;;;;;;;;;;19.70;55.90;;;;;;5096673;28;20483;-64
2022/10/07 01:27:20;;;;;;;;;;;19.70;55.80;;;;;;5096204;28;20015;-64
2022/10/07 01:29:54;;;;;;;;;;;19.70;55.80;;;;;;5078129;28;19909;-64
2022/10/07 01:32:31;;;;;;;;;;;19.70;55.80;;;;;;5101453;28;19908;-64
2022/10/07 01:34:57;;;;;;;;;;;19.70;55.80;;;;;;5095131;28;19923;-64
2022/10/07 01:37:22;;;;;;;;;;;19.70;55.90;;;;;;5096088;28;20003;-64
2022/10/07 01:39:54;;;;;;;;;;;19.60;55.90;;;;;;5095112;28;19918;-64
2022/10/07 01:42:20;;;;;;;;;;;19.60;55.90;;;;;;5094768;28;19916;-64
2022/10/07 01:44:47;;;;;;;;;;;19.60;55.90;;;;;;5096030;28;20375;-64
2022/10/07 01:47:12;;;;;;;;;;;19.60;55.90;;;;;;5094291;28;19908;-64
2022/10/07 01:49:38;;;;;;;;;;;19.60;56.00;;;;;;5096037;28;20382;-64
2022/10/07 01:52:33;;;;;;;;;;;19.50;55.90;;;;;;5096028;28;20489;-64
2022/10/07 01:55:18;;;;;;;;;;;19.50;56.00;;;;;;5023361;28;20283;-64
2022/10/07 01:57:46;;;;;;;;;;;19.50;56.00;;;;;;5095942;28;19915;-64
2022/10/07 02:00:12;;;;;;;;;;;19.50;56.00;;;;;;5095612;28;19970;-64
2022/10/07 02:02:50;;;;;;;;;;;19.60;56.10;;;;;;5095384;28;19944;-64
2022/10/07 02:05:34;;;;;;;;;;;19.50;56.00;;;;;;5095495;28;19914;-65
2022/10/07 02:08:07;;;;;;;;;;;19.60;56.10;;;;;;5095140;28;19916;-64
2022/10/07 02:10:33;;;;;;;;;;;19.60;56.00;;;;;;5095617;28;20364;-64
2022/10/07 02:13:10;;;;;;;;;;;19.60;55.90;;;;;;5095451;28;19915;-64
2022/10/07 02:15:41;;;;;;;;;;;19.60;56.00;;;;;;5094415;28;20387;-64
2022/10/07 02:18:07;;;;;;;;;;;19.60;56.00;;;;;;5095150;28;20364;-64
2022/10/07 02:20:33;;;;;;;;;;;19.60;55.90;;;;;;5095254;28;19976;-64
2022/10/07 02:22:59;;;;;;;;;;;19.60;55.90;;;;;;5094004;28;19951;-64
2022/10/07 02:25:25;;;;;;;;;;;19.60;55.90;;;;;;5095563;28;19955;-64
2022/10/07 02:27:51;;;;;;;;;;;19.50;55.80;;;;;;5093895;28;19908;-64
2022/10/07 02:30:17;;;;;;;;;;;19.60;55.90;;;;;;5095070;28;19912;-64
2022/10/07 02:32:46;;;;;;;;;;;19.60;55.80;;;;;;5093490;28;19916;-64
2022/10/07 02:35:22;;;;;;;;;;;19.60;55.80;;;;;;5093864;28;19916;-64
2022/10/07 02:37:47;;;;;;;;;;;19.60;55.70;;;;;;5095130;28;19912;-64
2022/10/07 02:40:13;;;;;;;;;;;19.60;55.60;;;;;;5093641;28;20364;-64
2022/10/07 02:42:50;;;;;;;;;;;19.60;55.80;;;;;;5094880;28;19909;-64
2022/10/07 02:45:17;;;;;;;;;;;19.60;55.60;;;;;;5094951;28;19908;-64
2022/10/07 02:47:45;;;;;;;;;;;19.60;55.80;;;;;;5094428;28;19911;-64
2022/10/07 02:50:11;;;;;;;;;;;19.60;55.70;;;;;;5093566;28;19961;-64
2022/10/07 02:52:37;;;;;;;;;;;19.60;55.60;;;;;;5093374;28;19916;-64
2022/10/07 02:55:03;;;;;;;;;;;19.60;55.50;;;;;;5094565;28;19959;-64
2022/10/07 02:57:30;;;;;;;;;;;19.60;55.50;;;;;;5094813;28;19954;-65
2022/10/07 02:59:56;;;;;;;;;;;19.60;55.40;;;;;;5093420;28;19962;-64
2022/10/07 03:02:26;;;;;;;;;;;19.60;55.40;;;;;;5092735;28;20356;-64
2022/10/07 03:04:52;;;;;;;;;;;19.60;55.50;;;;;;5093115;28;20329;-64
2022/10/07 03:07:17;;;;;;;;;;;19.60;55.40;;;;;;5094503;28;19999;-64
2022/10/07 03:09:43;;;;;;;;;;;19.60;55.40;;;;;;5094710;28;19912;-64
2022/10/07 03:12:08;;;;;;;;;;;19.50;55.40;;;;;;5094274;28;20409;-64
2022/10/07 03:14:34;;;;;;;;;;;19.60;55.40;;;;;;5094570;28;20393;-64
2022/10/07 03:17:00;;;;;;;;;;;19.60;56.10;;;;;;5093963;28;19908;-64
2022/10/07 03:19:26;;;;;;;;;;;19.60;55.40;;;;;;5092879;28;19923;-64
2022/10/07 03:21:52;;;;;;;;;;;19.60;55.30;;;;;;5093976;28;20401;-65
2022/10/07 03:24:18;;;;;;;;;;;19.60;55.30;;;;;;5093693;28;19908;-64
2022/10/07 03:26:44;;;;;;;;;;;19.60;55.30;;;;;;5093932;28;20372;-64
2022/10/07 03:29:10;;;;;;;;;;;19.60;55.30;;;;;;5094052;28;19912;-64
2022/10/07 03:31:35;;;;;;;;;;;19.60;55.30;;;;;;5093897;28;20312;-64
2022/10/07 03:34:01;;;;;;;;;;;19.60;55.30;;;;;;5093848;28;19994;-64
2022/10/07 03:36:26;;;;;;;;;;;19.60;55.30;;;;;;5093693;28;19912;-64
2022/10/07 03:38:51;;;;;;;;;;;19.60;55.20;;;;;;5093780;28;19912;-64
2022/10/07 03:41:17;;;;;;;;;;;19.50;55.20;;;;;;5093526;28;19916;-64
2022/10/07 03:43:43;;;;;;;;;;;19.50;55.20;;;;;;5093842;28;19912;-64
2022/10/07 03:46:08;;;;;;;;;;;19.50;55.30;;;;;;5093233;28;19912;-64
2022/10/07 03:48:34;;;;;;;;;;;19.50;55.40;;;;;;5093627;28;19919;-63
2022/10/07 03:50:59;;;;;;;;;;;19.50;55.50;;;;;;5093475;28;19927;-64
2022/10/07 03:53:25;;;;;;;;;;;19.40;55.50;;;;;;5093503;28;20423;-65
2022/10/07 03:55:51;;;;;;;;;;;19.50;55.50;;;;;;5093425;28;19915;-64
2022/10/07 03:58:16;;;;;;;;;;;19.50;55.50;;;;;;5093513;28;20375;-64
2022/10/07 04:00:42;;;;;;;;;;;19.50;55.40;;;;;;5093100;28;19916;-64
2022/10/07 04:03:07;;;;;;;;;;;19.40;55.40;;;;;;5093308;28;19908;-64
2022/10/07 04:05:33;;;;;;;;;;;19.40;55.60;;;;;;5093710;28;19912;-63
2022/10/07 04:07:59;;;;;;;;;;;19.40;55.70;;;;;;5093178;28;19994;-63
2022/10/07 04:10:24;;;;;;;;;;;19.40;55.60;;;;;;5093186;28;19908;-64
2022/10/07 04:12:53;;;;;;;;;;;19.40;55.50;;;;;;5091881;28;19977;-64
2022/10/07 04:15:18;;;;;;;;;;;19.40;55.40;;;;;;5093031;28;19915;-64
2022/10/07 04:17:45;;;;;;;;;;;19.40;55.40;;;;;;5092587;28;19912;-64
2022/10/07 04:20:11;;;;;;;;;;;19.40;55.40;;;;;;5093185;28;19958;-64
2022/10/07 04:22:37;;;;;;;;;;;19.40;55.40;;;;;;5092890;28;19977;-64
2022/10/07 04:27:53;;;;;;;;;;;19.40;55.40;;;;;;5092973;28;20477;-64
2022/10/07 04:30:19;;;;;;;;;;;19.40;55.40;;;;;;5093178;28;19908;-64
2022/10/07 04:32:44;;;;;;;;;;;19.40;55.40;;;;;;5092549;28;20397;-64
2022/10/07 04:35:10;;;;;;;;;;;19.40;55.20;;;;;;5092123;28;20317;-63
2022/10/07 04:37:35;;;;;;;;;;;19.40;55.20;;;;;;5092781;28;20012;-64
2022/10/07 04:40:01;;;;;;;;;;;19.40;55.10;;;;;;5092516;28;19916;-64
2022/10/07 04:45:10;;;;;;;;;;;19.50;55.10;;;;;;5072666;28;19916;-63
2022/10/07 04:47:36;;;;;;;;;;;19.50;54.90;;;;;;5072111;28;19908;-63
2022/10/07 04:50:01;;;;;;;;;;;19.50;54.90;;;;;;5072646;28;19908;-63
2022/10/07 04:52:27;;;;;;;;;;;19.50;54.80;;;;;;5072746;28;19969;-63
2022/10/07 04:54:53;;;;;;;;;;;19.50;54.80;;;;;;5072535;28;20288;-63
2022/10/07 04:57:18;;;;;;;;;;;19.50;54.80;;;;;;5072616;28;19991;-65
2022/10/07 04:59:44;;;;;;;;;;;19.40;54.90;;;;;;5072481;28;19919;-63
2022/10/07 05:02:09;;;;;;;;;;;19.40;54.90;;;;;;5071953;28;19916;-63
2022/10/07 05:04:35;;;;;;;;;;;19.50;54.80;;;;;;5072440;28;20003;-64
2022/10/07 05:07:00;;;;;;;;;;;19.50;54.80;;;;;;5072520;28;19909;-64
2022/10/07 05:09:26;;;;;;;;;;;19.50;54.60;;;;;;5086412;28;19969;-64
2022/10/07 05:11:52;;;;;;;;;;;19.50;54.60;;;;;;5092698;28;19909;-64
2022/10/07 05:14:20;;;;;;;;;;;19.50;54.60;;;;;;5092572;28;19912;-64
2022/10/07 05:16:49;;;;;;;;;;;19.40;54.60;;;;;;5091843;28;20402;-64
2022/10/07 05:19:14;;;;;;;;;;;19.40;54.70;;;;;;5092357;28;19969;-63
2022/10/07 05:21:39;;;;;;;;;;;19.40;54.80;;;;;;5092226;28;19920;-64
2022/10/07 05:24:05;;;;;;;;;;;19.40;54.70;;;;;;5092584;28;19920;-64
2022/10/07 05:26:30;;;;;;;;;;;19.40;54.60;;;;;;5092410;28;19908;-63
2022/10/07 05:28:56;;;;;;;;;;;19.40;54.60;;;;;;5092371;28;19915;-64
2022/10/07 05:31:21;;;;;;;;;;;19.40;54.70;;;;;;5091950;28;19961;-63
2022/10/07 05:33:48;;;;;;;;;;;19.40;54.60;;;;;;5092220;28;19965;-63
2022/10/07 05:36:14;;;;;;;;;;;19.30;54.60;;;;;;5091220;28;19995;-64
2022/10/07 05:38:39;;;;;;;;;;;19.30;54.80;;;;;;5092065;28;20387;-64
2022/10/07 05:41:05;;;;;;;;;;;19.30;54.90;;;;;;5092030;28;19919;-64
2022/10/07 05:43:32;;;;;;;;;;;19.30;54.90;;;;;;5090982;28;19908;-64
2022/10/07 05:46:01;;;;;;;;;;;19.30;54.90;;;;;;5091231;28;19919;-63
2022/10/07 05:48:28;;;;;;;;;;;19.30;54.90;;;;;;5096091;28;19919;-63
2022/10/07 05:50:56;;;;;;;;;;;19.30;54.90;;;;;;5095934;28;20372;-63
2022/10/07 05:53:21;;;;;;;;;;;19.30;54.90;;;;;;5095907;28;19912;-63
2022/10/07 05:55:47;;;;;;;;;;;19.30;54.90;;;;;;5095792;28;19935;-63
2022/10/07 05:58:13;;;;;;;;;;;19.30;54.90;;;;;;5095898;28;19908;-64
2022/10/07 06:00:41;;;;;;;;;;;19.20;54.80;;;;;;5095728;28;20283;-63
2022/10/07 06:03:06;;;;;;;;;;;19.20;54.90;;;;;;5095577;28;19915;-64
2022/10/07 06:05:32;;;;;;;;;;;19.30;54.90;;;;;;5095656;28;20256;-63
2022/10/07 06:07:57;;;;;;;;;;;19.30;54.80;;;;;;5095262;28;19915;-64
2022/10/07 06:13:07;;;;;;;;;;;19.30;54.70;;;;;;5095643;28;20138;-64
2022/10/07 06:15:33;;;;;;;;;;;19.30;54.60;;;;;;5094348;28;20336;-63
2022/10/07 06:17:58;;;;;;;;;;;19.30;54.70;;;;;;5093595;28;19916;-63
2022/10/07 06:20:23;;;;;;;;;;;19.20;54.70;;;;;;5095330;28;19953;-63
2022/10/07 06:22:51;;;;;;;;;;;19.30;54.70;;;;;;5095287;28;19919;-63
2022/10/07 06:25:17;;;;;;;;;;;19.30;54.80;;;;;;5095618;28;19952;-64
2022/10/07 06:27:42;;;;;;;;;;;19.20;54.60;;;;;;5095211;28;19908;-65
2022/10/07 06:30:08;;;;;;;;;;;19.30;54.50;;;;;;5095179;28;20423;-65
2022/10/07 06:32:34;;;;;;;;;;;19.30;54.50;;;;;;5095017;28;20284;-65
2022/10/07 06:34:59;;;;;;;;;;;19.30;54.50;;;;;;5095234;28;19920;-66
2022/10/07 06:37:24;;;;;;;;;;;19.30;54.50;;;;;;5094901;28;19915;-66
2022/10/07 06:39:50;;;;;;;;;;;19.30;54.50;;;;;;5095029;28;19915;-65
2022/10/07 06:42:16;;;;;;;;;;;19.30;54.40;;;;;;5094779;28;19912;-65
2022/10/07 06:44:41;;;;;;;;;;;19.20;54.30;;;;;;5094934;28;19908;-65
2022/10/07 06:47:07;;;;;;;;;;;19.20;54.50;;;;;;5094519;28;19943;-65
2022/10/07 06:49:32;;;;;;;;;;;19.20;54.30;;;;;;5094847;28;19954;-65
2022/10/07 06:51:58;;;;;;;;;;;19.20;54.30;;;;;;5094647;28;19915;-65
2022/10/07 06:54:24;;;;;;;;;;;19.30;54.40;;;;;;5094888;28;20004;-65
2022/10/07 06:56:49;;;;;;;;;;;19.30;54.40;;;;;;5094597;28;19919;-65
2022/10/07 06:59:15;;;;;;;;;;;19.30;54.40;;;;;;5093674;28;19908;-65
2022/10/07 07:01:40;;;;;;;;;;;19.30;55.00;;;;;;5094101;28;19920;-65
2022/10/07 07:04:05;;;;;;;;;;;19.30;54.20;;;;;;5094388;28;19908;-65
2022/10/07 07:06:34;;;;;;;;;;;19.30;54.40;;;;;;5094296;28;20003;-65
2022/10/07 07:09:03;;;;;;;;;;;19.20;54.30;;;;;;5094096;28;19912;-65
2022/10/07 07:11:40;;;;;;;;;;;19.30;54.40;;;;;;5094127;28;19912;-66
2022/10/07 07:14:06;;;;;;;;;;;19.30;54.40;;;;;;5094208;28;20401;-65
2022/10/07 07:16:32;;;;;;;;;;;19.20;54.30;;;;;;5093926;28;20011;-66
2022/10/07 07:18:58;;;;;;;;;;;19.20;55.00;;;;;;5094178;28;19920;-66
2022/10/07 07:21:24;;;;;;;;;;;19.20;54.30;;;;;;5094204;28;19966;-65
2022/10/07 07:23:50;;;;;;;;;;;19.20;54.30;;;;;;5093052;28;19919;-65
2022/10/07 07:26:15;;;;;;;;;;;19.10;54.20;;;;;;5094128;28;20293;-65
2022/10/07 07:28:41;;;;;;;;;;;19.10;54.20;;;;;;5094230;28;19966;-65
2022/10/07 07:31:09;;;;;;;;;;;19.20;54.40;;;;;;5093692;28;20003;-65
2022/10/07 07:33:38;;;;;;;;;;;19.10;54.40;;;;;;5094014;28;19908;-65
2022/10/07 07:36:14;;;;;;;;;;;19.10;54.30;;;;;;5092555;28;19966;-65
2022/10/07 07:38:39;;;;;;;;;;;19.10;54.40;;;;;;5094190;28;19965;-65
2022/10/07 07:41:05;;;;;;;;;;;19.10;54.60;;;;;;5093861;28;19916;-65
2022/10/07 07:43:30;;;;;;;;;;;19.10;54.60;;;;;;5093937;28;19908;-65
2022/10/07 07:45:58;;;;;;;;;;;19.10;54.30;;;;;;5093665;28;20420;-66
2022/10/07 07:48:24;;;;;;;;;;;19.10;54.20;;;;;;5092387;28;19912;-66
2022/10/07 07:50:49;;;;;;;;;;;19.10;54.20;;;;;;5093957;28;19915;-66
2022/10/07 07:53:15;;;;;;;;;;;19.20;54.30;;;;;;5093681;28;19916;-65
2022/10/07 07:55:50;;;;;;;;;;;19.20;54.40;;;;;;5093449;28;19916;-65
2022/10/07 07:58:16;;;;;;;;;;;19.20;54.30;;;;;;5093552;28;19930;-65
2022/10/07 08:00:42;;;;;;;;;;;19.20;54.40;;;;;;5093094;28;19912;-65
2022/10/07 08:03:07;;;;;;;;;;;19.10;54.20;;;;;;5093280;28;19991;-65
2022/10/07 08:05:33;;;;;;;;;;;19.20;54.30;;;;;;5093383;28;19908;-65
2022/10/07 08:07:59;;;;;;;;;;;19.20;54.40;;;;;;5093391;28;19986;-65
2022/10/07 08:10:24;;;;;;;;;;;19.10;54.20;;;;;;5093428;28;19916;-65
2022/10/07 08:12:50;;;;;;;;;;;19.20;54.30;;;;;;5093322;28;19944;-65
2022/10/07 08:15:15;;;;;;;;;;;19.10;54.20;;;;;;5093285;28;19965;-64
2022/10/07 08:17:41;;;;;;;;;;;19.10;54.30;;;;;;5092574;28;19920;-64
2022/10/07 08:20:09;;;;;;;;;;;19.10;54.40;;;;;;5093083;28;20443;-64
2022/10/07 08:22:34;;;;;;;;;;;19.10;54.30;;;;;;5093023;28;20326;-65
2022/10/07 08:25:00;;;;;;;;;;;19.20;54.40;;;;;;5093301;28;19908;-65
2022/10/07 08:27:27;;;;;;;;;;;19.10;54.40;;;;;;5093131;28;19909;-64
2022/10/07 08:29:52;;;;;;;;;;;19.10;54.60;;;;;;5093314;28;19935;-64
2022/10/07 08:32:17;;;;;;;;;;;19.10;54.60;;;;;;5092474;28;19952;-64
2022/10/07 08:34:43;;;;;;;;;;;19.10;54.60;;;;;;5092883;28;19915;-64
2022/10/07 08:37:08;;;;;;;;;;;19.10;54.70;;;;;;5093106;28;19912;-64
2022/10/07 08:39:34;;;;;;;;;;;19.10;54.70;;;;;;5093103;28;19912;-64
2022/10/07 08:42:07;;;;;;;;;;;19.10;54.70;;;;;;5092609;28;20054;-64
2022/10/07 08:44:39;;;;;;;;;;;19.00;54.80;;;;;;5091678;28;19958;-64
2022/10/07 08:47:09;;;;;;;;;;;19.00;54.90;;;;;;5091123;28;19977;-64
2022/10/07 08:49:53;;;;;;;;;;;19.00;55.60;;;;;;5091487;28;19912;-64
2022/10/07 08:52:24;;;;;;;;;;;18.90;54.90;;;;;;5092468;28;19908;-64
2022/10/07 08:54:49;;;;;;;;;;;19.00;55.00;;;;;;5092745;28;19919;-64
2022/10/07 08:57:19;;;;;;;;;;;18.90;55.00;;;;;;5091152;28;19908;-64
2022/10/07 08:59:45;;;;;;;;;;;18.90;55.00;;;;;;5091722;28;19912;-64
2022/10/07 09:02:14;;;;;;;;;;;18.90;55.00;;;;;;5090813;28;19919;-64
2022/10/07 09:04:40;;;;;;;;;;;19.00;54.90;;;;;;5092664;28;20383;-65
2022/10/07 09:07:10;;;;;;;;;;;19.00;55.10;;;;;;5092457;28;19915;-64
2022/10/07 09:09:43;;;;;;;;;;;19.00;55.00;;;;;;5074372;28;19908;-65
2022/10/07 09:12:15;;;;;;;;;;;19.00;55.00;;;;;;5091160;28;19913;-65
2022/10/07 09:14:41;;;;;;;;;;;19.00;55.10;;;;;;5091229;28;19912;-64
2022/10/07 09:17:10;;;;;;;;;;;19.00;55.10;;;;;;5091842;28;19958;-63
2022/10/07 09:19:40;;;;;;;;;;;19.00;55.20;;;;;;5092358;28;19943;-64
2022/10/07 09:22:10;;;;;;;;;;;19.00;55.10;;;;;;5094915;28;19916;-64
2022/10/07 09:24:35;;;;;;;;;;;19.00;55.00;;;;;;5095182;28;20352;-64
2022/10/07 09:27:01;;;;;;;;;;;19.00;55.10;;;;;;5096338;28;19956;-64
2022/10/07 09:29:28;;;;;;;;;;;19.00;55.20;;;;;;5095035;28;20371;-65
2022/10/07 09:31:54;;;;;;;;;;;19.00;55.10;;;;;;5096167;28;20402;-64
2022/10/07 09:34:23;;;;;;;;;;;19.00;55.10;;;;;;5094988;28;19912;-64
2022/10/07 09:37:27;;;;;;;;;;;19.00;55.10;;;;;;5096450;28;20276;-64
2022/10/07 09:39:54;;;;;;;;;;;19.00;55.20;;;;;;5013608;28;19955;-64
2022/10/07 09:42:35;;;;;;;;;;;19.00;55.20;;;;;;5013678;28;20003;-64
2022/10/07 09:45:02;;;;;;;;;;;19.00;55.20;;;;;;5060346;28;20363;-64
2022/10/07 09:47:31;;;;;;;;;;;19.00;55.20;;;;;;5095595;28;19923;-64
2022/10/07 09:49:58;;;;;;;;;;;19.00;55.20;;;;;;5096047;28;19914;-64
2022/10/07 09:52:25;;;;;;;;;;;19.00;55.30;;;;;;5096059;28;20391;-64
2022/10/07 09:54:51;;;;;;;;;;;19.00;55.20;;;;;;5095853;28;19960;-64
2022/10/07 09:57:22;;;;;;;;;;;19.00;55.20;;;;;;5094540;28;19908;-65
2022/10/07 09:59:48;;;;;;;;;;;19.00;55.20;;;;;;5095899;28;19919;-65
2022/10/07 10:02:14;;;;;;;;;;;19.00;55.20;;;;;;5095550;28;19912;-64
2022/10/07 10:04:49;;;;;;;;;;;19.10;55.90;;;;;;5095693;28;19912;-64
2022/10/07 10:07:16;;;;;;;;;;;19.10;55.30;;;;;;5095642;28;19935;-64
2022/10/07 10:09:54;;;;;;;;;;;19.10;55.30;;;;;;5094478;28;19935;-64
2022/10/07 10:12:20;;;;;;;;;;;19.10;55.30;;;;;;5095570;28;19908;-64
2022/10/07 10:14:49;;;;;;;;;;;19.10;55.30;;;;;;5095559;28;19977;-64
2022/10/07 10:17:22;;;;;;;;;;;19.10;55.30;;;;;;5093877;28;19915;-64
2022/10/07 10:19:47;;;;;;;;;;;19.10;55.30;;;;;;5095249;28;19926;-64
2022/10/07 10:22:23;;;;;;;;;;;19.10;55.30;;;;;;5095153;28;20002;-64
2022/10/07 10:27:33;;;;;;;;;;;19.10;55.20;;;;;;5095228;28;19966;-64
2022/10/07 10:30:00;;;;;;;;;;;19.10;55.10;;;;;;5093920;28;19931;-64
2022/10/07 10:32:46;;;;;;;;;;;19.20;55.80;;;;;;5092253;28;19995;-64
2022/10/07 10:35:22;;;;;;;;;;;19.10;55.20;;;;;;5095221;28;19951;-64
2022/10/07 10:37:48;;;;;;;;;;;19.10;55.20;;;;;;5093692;28;19912;-64
2022/10/07 10:40:19;;;;;;;;;;;19.20;55.30;;;;;;5095032;28;19916;-64
2022/10/07 10:42:53;;;;;;;;;;;19.10;55.30;;;;;;5095098;28;19920;-64
2022/10/07 10:45:23;;;;;;;;;;;19.10;55.30;;;;;;5095159;28;19912;-64
2022/10/07 10:47:49;;;;;;;;;;;19.10;55.30;;;;;;5094561;28;19908;-64
2022/10/07 10:50:25;;;;;;;;;;;19.20;55.30;;;;;;5094813;28;19912;-64
2022/10/07 10:53:06;;;;;;;;;;;19.20;55.40;;;;;;5093883;28;19912;-64
2022/10/07 10:55:44;;;;;;;;;;;19.20;55.40;;;;;;5093318;28;20372;-65
2022/10/07 10:58:16;;;;;;;;;;;19.20;55.40;;;;;;5094592;28;19958;-64
2022/10/07 11:00:51;;;;;;;;;;;19.20;55.30;;;;;;5093502;28;20317;-64
2022/10/07 11:03:23;;;;;;;;;;;19.20;55.40;;;;;;5093661;28;19915;-64
2022/10/07 11:05:49;;;;;;;;;;;19.20;55.40;;;;;;5093403;28;20329;-64
2022/10/07 11:08:16;;;;;;;;;;;19.30;55.50;;;;;;5093144;28;19912;-64
2022/10/07 11:10:47;;;;;;;;;;;19.30;55.30;;;;;;5093137;28;19908;-64
2022/10/07 11:13:13;;;;;;;;;;;19.30;55.20;;;;;;5094501;28;20006;-64
2022/10/07 11:15:40;;;;;;;;;;;19.30;55.30;;;;;;5094387;28;20363;-65
2022/10/07 11:18:13;;;;;;;;;;;19.30;55.30;;;;;;5092630;28;19916;-65
2022/10/07 11:20:42;;;;;;;;;;;19.30;55.40;;;;;;5093028;28;20245;-65
2022/10/07 11:23:21;;;;;;;;;;;19.30;55.40;;;;;;5093045;28;19963;-65
2022/10/07 11:25:51;;;;;;;;;;;19.30;55.40;;;;;;5094020;28;19908;-65
2022/10/07 11:28:21;;;;;;;;;;;19.30;55.40;;;;;;5094136;28;19908;-65
2022/10/07 11:31:04;;;;;;;;;;;19.30;55.40;;;;;;5093702;28;20394;-65
2022/10/07 11:33:36;;;;;;;;;;;19.30;55.40;;;;;;5092706;28;19919;-65
2022/10/07 11:36:05;;;;;;;;;;;19.30;55.40;;;;;;5092651;28;19995;-65
2022/10/07 11:38:32;;;;;;;;;;;19.30;55.40;;;;;;5093877;28;19908;-65
2022/10/07 11:41:33;;;;;;;;;;;19.30;55.30;;;;;;5092524;28;19958;-65
2022/10/07 11:44:00;;;;;;;;;;;19.40;55.40;;;;;;5011298;28;19913;-65
2022/10/07 11:46:28;;;;;;;;;;;19.40;55.40;;;;;;5076940;28;19915;-65
2022/10/07 11:48:59;;;;;;;;;;;19.40;55.30;;;;;;5093667;28;20003;-65
2022/10/07 11:51:29;;;;;;;;;;;19.40;55.40;;;;;;5093638;28;19912;-65
2022/10/07 11:53:55;;;;;;;;;;;19.40;55.30;;;;;;5092354;28;19961;-64
2022/10/07 11:56:22;;;;;;;;;;;19.40;55.40;;;;;;5093401;28;19915;-65
2022/10/07 11:58:54;;;;;;;;;;;19.40;55.40;;;;;;5092389;28;19914;-64
2022/10/07 12:01:29;;;;;;;;;;;19.40;55.40;;;;;;5092955;28;19916;-64
2022/10/07 12:04:00;;;;;;;;;;;19.40;55.40;;;;;;5093451;28;19919;-64
2022/10/07 12:06:26;;;;;;;;;;;19.40;55.50;;;;;;5093534;28;19947;-64
2022/10/07 12:08:52;;;;;;;;;;;19.30;55.60;;;;;;5093215;28;19954;-65
2022/10/07 12:11:17;;;;;;;;;;;19.40;55.70;;;;;;5091886;28;19916;-65
2022/10/07 12:13:44;;;;;;;;;;;19.40;55.70;;;;;;5093297;28;19909;-65
2022/10/07 12:16:22;;;;;;;;;;;19.40;55.60;;;;;;5091817;28;19912;-65
2022/10/07 12:19:06;;;;;;;;;;;19.40;55.60;;;;;;5093009;28;19916;-65
2022/10/07 12:21:50;;;;;;;;;;;19.50;55.50;;;;;;5092982;28;19920;-65
2022/10/07 12:24:17;;;;;;;;;;;19.50;55.50;;;;;;5092309;28;22258;-65
2022/10/07 12:26:43;;;;;;;;;;;19.50;55.50;;;;;;5093113;28;19999;-65
2022/10/07 12:29:22;;;;;;;;;;;19.50;55.50;;;;;;5092871;28;19957;-65
2022/10/07 12:31:48;;;;;;;;;;;19.60;55.50;;;;;;5092611;28;20010;-65
2022/10/07 12:34:33;;;;;;;;;;;19.50;55.50;;;;;;5092986;28;20375;-64
2022/10/07 12:37:17;;;;;;;;;;;19.60;55.50;;;;;;5092793;28;20269;-63
2022/10/07 12:39:43;;;;;;;;;;;19.60;55.50;;;;;;5092676;28;19916;-64
2022/10/07 12:42:09;;;;;;;;;;;19.60;55.50;;;;;;5091281;28;19912;-64
2022/10/07 12:44:37;;;;;;;;;;;19.60;55.60;;;;;;5091519;28;19912;-65
2022/10/07 12:47:08;;;;;;;;;;;19.60;55.60;;;;;;5091184;28;19908;-64
2022/10/07 12:49:42;;;;;;;;;;;19.60;55.50;;;;;;5092733;28;20368;-64
2022/10/07 12:52:14;;;;;;;;;;;19.70;55.50;;;;;;5091446;28;20298;-65
2022/10/07 12:54:42;;;;;;;;;;;19.70;55.60;;;;;;5091459;28;20379;-65
2022/10/07 12:57:11;;;;;;;;;;;19.70;55.60;;;;;;5090702;28;19916;-65
2022/10/07 12:59:49;;;;;;;;;;;19.60;55.60;;;;;;5092602;28;19915;-65
2022/10/07 13:02:24;;;;;;;;;;;19.70;55.60;;;;;;5090994;28;19919;-65
2022/10/07 13:05:08;;;;;;;;;;;19.70;55.60;;;;;;5091295;28;19912;-64
2022/10/07 13:07:36;;;;;;;;;;;19.70;55.50;;;;;;5092470;28;19907;-64
2022/10/07 13:10:05;;;;;;;;;;;19.70;55.60;;;;;;5092499;28;19915;-64
2022/10/07 13:12:45;;;;;;;;;;;19.70;55.60;;;;;;5091171;28;19915;-64
2022/10/07 13:15:30;;;;;;;;;;;19.70;55.60;;;;;;5091322;28;19946;-64
2022/10/07 13:18:06;;;;;;;;;;;19.70;55.80;;;;;;5092180;28;20429;-64
2022/10/07 13:20:50;;;;;;;;;;;19.70;55.90;;;;;;5091615;28;20264;-64
2022/10/07 13:23:16;;;;;;;;;;;19.70;55.80;;;;;;5092455;28;19912;-64
2022/10/07 13:25:43;;;;;;;;;;;19.80;55.80;;;;;;5091180;28;19908;-64
2022/10/07 13:28:13;;;;;;;;;;;19.70;55.70;;;;;;5092441;28;20406;-64
2022/10/07 13:30:42;;;;;;;;;;;19.70;55.80;;;;;;5091189;28;19959;-64
2022/10/07 13:33:27;;;;;;;;;;;19.70;55.80;;;;;;5092168;28;19919;-64
2022/10/07 13:36:16;;;;;;;;;;;19.70;55.90;;;;;;5092428;28;19915;-64
2022/10/07 13:38:41;;;;;;;;;;;19.70;55.90;;;;;;5081144;28;19912;-64
2022/10/07 13:41:08;;;;;;;;;;;19.70;55.90;;;;;;5092154;28;20021;-64
2022/10/07 13:43:34;;;;;;;;;;;19.70;55.90;;;;;;5092245;28;19912;-64
2022/10/07 13:46:00;;;;;;;;;;;19.70;56.00;;;;;;5090725;28;20384;-64
2022/10/07 13:48:26;;;;;;;;;;;19.70;55.90;;;;;;5092242;28;19958;-64
2022/10/07 13:50:53;;;;;;;;;;;19.70;56.00;;;;;;5092044;28;19908;-64
2022/10/07 13:53:24;;;;;;;;;;;19.70;56.10;;;;;;5091995;28;20402;-64
2022/10/07 13:55:49;;;;;;;;;;;19.70;56.20;;;;;;5090914;28;20306;-65
2022/10/07 13:58:15;;;;;;;;;;;19.70;56.20;;;;;;5091976;28;19908;-64
2022/10/07 14:00:42;;;;;;;;;;;19.70;56.10;;;;;;5090773;28;19908;-64
2022/10/07 14:03:14;;;;;;;;;;;19.70;56.10;;;;;;5090590;28;20297;-64
2022/10/07 14:05:47;;;;;;;;;;;19.70;56.10;;;;;;5092132;28;19912;-64
2022/10/07 14:08:15;;;;;;;;;;;19.70;56.10;;;;;;5094569;28;19935;-64
2022/10/07 14:10:50;;;;;;;;;;;19.70;56.00;;;;;;5094661;28;19908;-64
2022/10/07 14:13:16;;;;;;;;;;;19.70;56.00;;;;;;5094349;28;19912;-64
2022/10/07 14:15:46;;;;;;;;;;;19.70;56.10;;;;;;5093965;28;20379;-64
2022/10/07 14:18:12;;;;;;;;;;;19.70;56.20;;;;;;5100513;28;20428;-64
2022/10/07 14:20:39;;;;;;;;;;;19.70;56.20;;;;;;5095834;28;19956;-64
2022/10/07 14:23:27;;;;;;;;;;;19.60;56.10;;;;;;5095431;28;19919;-64
2022/10/07 14:25:55;;;;;;;;;;;19.60;56.30;;;;;;5102138;28;19931;-65
2022/10/07 14:28:28;;;;;;;;;;;19.60;56.40;;;;;;5095513;28;19908;-65
2022/10/07 14:36:36;;;;;;;;;;;19.60;56.40;;;;;;5095108;28;20030;-64
2022/10/07 14:39:28;;;;;;;;;;;19.60;56.40;;;;;;5095141;28;19916;-65
2022/10/07 14:41:54;;;;;;;;;;;19.60;56.40;;;;;;5093477;28;19924;-64